sensor_id;sensor_type;location;lat;lon;timestamp;P1;durP1;ratioP1;P2;durP2;ratioP2
7195;SDS011;3639;51.308;5.624;2023-07-31T00:00:12;9.13;;;3.97;;
7195;SDS011;3639;51.308;5.624;2023-07-31T00:02:38;13.20;;;4.83;;
7195;SDS011;3639;51.308;5.624;2023-07-31T00:05:04;13.30;;;4.63;;
7195;SDS011;3639;51.308;5.624;2023-07-31T00:07:30;12.80;;;4.73;;
7195;SDS011;3639;51.308;5.624;2023-07-31T00:09:57;13.03;;;5.33;;
7195;SDS011;3639;51.308;5.624;2023-07-31T00:12:23;11.57;;;4.43;;
7195;SDS011;3639;51.308;5.624;2023-07-31T00:14:49;11.77;;;4.60;;
7195;SDS011;3639;51.308;5.624;2023-07-31T00:17:14;10.63;;;4.23;;
7195;SDS011;3639;51.308;5.624;2023-07-31T00:19:41;11.40;;;4.10;;
7195;SDS011;3639;51.308;5.624;2023-07-31T00:22:07;14.87;;;4.43;;
7195;SDS011;3639;51.308;5.624;2023-07-31T00:24:33;10.00;;;5.40;;
7195;SDS011;3639;51.308;5.624;2023-07-31T00:26:58;12.77;;;4.50;;
7195;SDS011;3639;51.308;5.624;2023-07-31T00:29:24;13.13;;;3.90;;
7195;SDS011;3639;51.308;5.624;2023-07-31T00:31:49;12.53;;;3.97;;
7195;SDS011;3639;51.308;5.624;2023-07-31T00:34:15;8.70;;;3.87;;
7195;SDS011;3639;51.308;5.624;2023-07-31T00:36:40;14.50;;;4.70;;
7195;SDS011;3639;51.308;5.624;2023-07-31T00:39:06;9.80;;;4.07;;
7195;SDS011;3639;51.308;5.624;2023-07-31T00:41:32;7.50;;;4.17;;
7195;SDS011;3639;51.308;5.624;2023-07-31T00:43:57;10.63;;;5.13;;
7195;SDS011;3639;51.308;5.624;2023-07-31T00:46:23;10.20;;;4.00;;
7195;SDS011;3639;51.308;5.624;2023-07-31T00:48:49;12.50;;;4.30;;
7195;SDS011;3639;51.308;5.624;2023-07-31T00:51:14;8.37;;;3.53;;
7195;SDS011;3639;51.308;5.624;2023-07-31T00:53:41;9.20;;;3.63;;
7195;SDS011;3639;51.308;5.624;2023-07-31T00:56:07;11.13;;;4.43;;
7195;SDS011;3639;51.308;5.624;2023-07-31T00:58:33;7.97;;;4.00;;
7195;SDS011;3639;51.308;5.624;2023-07-31T01:00:59;9.90;;;3.80;;
7195;SDS011;3639;51.308;5.624;2023-07-31T01:03:25;10.67;;;4.27;;
7195;SDS011;3639;51.308;5.624;2023-07-31T01:06:01;8.43;;;3.70;;
7195;SDS011;3639;51.308;5.624;2023-07-31T01:08:40;16.10;;;5.37;;
7195;SDS011;3639;51.308;5.624;2023-07-31T01:11:21;8.37;;;4.07;;
7195;SDS011;3639;51.308;5.624;2023-07-31T01:13:56;7.73;;;3.60;;
7195;SDS011;3639;51.308;5.624;2023-07-31T01:16:23;17.07;;;4.10;;
7195;SDS011;3639;51.308;5.624;2023-07-31T01:18:50;9.17;;;3.73;;
7195;SDS011;3639;51.308;5.624;2023-07-31T01:23:51;14.37;;;4.73;;
7195;SDS011;3639;51.308;5.624;2023-07-31T01:26:41;11.53;;;4.50;;
7195;SDS011;3639;51.308;5.624;2023-07-31T01:29:17;12.73;;;4.50;;
7195;SDS011;3639;51.308;5.624;2023-07-31T01:32:01;10.23;;;3.97;;
7195;SDS011;3639;51.308;5.624;2023-07-31T01:34:28;9.33;;;3.50;;
7195;SDS011;3639;51.308;5.624;2023-07-31T01:36:58;11.30;;;5.53;;
7195;SDS011;3639;51.308;5.624;2023-07-31T01:39:23;15.00;;;3.93;;
7195;SDS011;3639;51.308;5.624;2023-07-31T01:41:49;20.40;;;5.13;;
7195;SDS011;3639;51.308;5.624;2023-07-31T01:44:15;11.00;;;4.50;;
7195;SDS011;3639;51.308;5.624;2023-07-31T01:46:40;14.83;;;4.13;;
7195;SDS011;3639;51.308;5.624;2023-07-31T01:49:06;13.73;;;5.27;;
7195;SDS011;3639;51.308;5.624;2023-07-31T01:51:32;12.60;;;4.37;;
7195;SDS011;3639;51.308;5.624;2023-07-31T01:54:01;10.00;;;4.20;;
7195;SDS011;3639;51.308;5.624;2023-07-31T01:56:26;12.87;;;4.40;;
7195;SDS011;3639;51.308;5.624;2023-07-31T01:58:52;10.57;;;4.23;;
7195;SDS011;3639;51.308;5.624;2023-07-31T02:01:18;13.57;;;4.50;;
7195;SDS011;3639;51.308;5.624;2023-07-31T02:03:43;12.53;;;4.30;;
7195;SDS011;3639;51.308;5.624;2023-07-31T02:06:09;14.57;;;4.70;;
7195;SDS011;3639;51.308;5.624;2023-07-31T02:08:35;8.53;;;3.90;;
7195;SDS011;3639;51.308;5.624;2023-07-31T02:11:00;11.47;;;4.50;;
7195;SDS011;3639;51.308;5.624;2023-07-31T02:13:26;14.20;;;4.20;;
7195;SDS011;3639;51.308;5.624;2023-07-31T02:15:51;9.77;;;3.97;;
7195;SDS011;3639;51.308;5.624;2023-07-31T02:18:17;9.67;;;4.47;;
7195;SDS011;3639;51.308;5.624;2023-07-31T02:20:43;12.23;;;4.30;;
7195;SDS011;3639;51.308;5.624;2023-07-31T02:23:11;10.93;;;4.40;;
7195;SDS011;3639;51.308;5.624;2023-07-31T02:25:36;10.50;;;4.33;;
7195;SDS011;3639;51.308;5.624;2023-07-31T02:28:02;11.77;;;4.10;;
7195;SDS011;3639;51.308;5.624;2023-07-31T02:30:28;10.30;;;4.20;;
7195;SDS011;3639;51.308;5.624;2023-07-31T02:32:53;10.80;;;4.83;;
7195;SDS011;3639;51.308;5.624;2023-07-31T02:35:19;12.60;;;5.10;;
7195;SDS011;3639;51.308;5.624;2023-07-31T02:37:44;11.17;;;4.67;;
7195;SDS011;3639;51.308;5.624;2023-07-31T02:40:10;13.07;;;4.50;;
7195;SDS011;3639;51.308;5.624;2023-07-31T02:42:36;13.37;;;5.20;;
7195;SDS011;3639;51.308;5.624;2023-07-31T02:45:02;12.27;;;4.70;;
7195;SDS011;3639;51.308;5.624;2023-07-31T02:47:27;14.50;;;4.90;;
7195;SDS011;3639;51.308;5.624;2023-07-31T02:49:53;11.47;;;4.87;;
7195;SDS011;3639;51.308;5.624;2023-07-31T02:52:18;12.40;;;4.77;;
7195;SDS011;3639;51.308;5.624;2023-07-31T02:54:44;13.50;;;4.57;;
7195;SDS011;3639;51.308;5.624;2023-07-31T02:57:10;14.37;;;4.67;;
7195;SDS011;3639;51.308;5.624;2023-07-31T02:59:36;13.60;;;4.33;;
7195;SDS011;3639;51.308;5.624;2023-07-31T03:02:01;13.23;;;4.20;;
7195;SDS011;3639;51.308;5.624;2023-07-31T03:04:27;13.37;;;4.43;;
7195;SDS011;3639;51.308;5.624;2023-07-31T03:06:53;11.97;;;5.40;;
7195;SDS011;3639;51.308;5.624;2023-07-31T03:09:18;10.30;;;4.10;;
7195;SDS011;3639;51.308;5.624;2023-07-31T03:11:44;13.93;;;4.43;;
7195;SDS011;3639;51.308;5.624;2023-07-31T03:14:09;15.83;;;5.80;;
7195;SDS011;3639;51.308;5.624;2023-07-31T03:16:35;17.27;;;5.27;;
7195;SDS011;3639;51.308;5.624;2023-07-31T03:19:01;12.83;;;4.73;;
7195;SDS011;3639;51.308;5.624;2023-07-31T03:21:26;13.63;;;4.57;;
7195;SDS011;3639;51.308;5.624;2023-07-31T03:23:52;10.97;;;4.23;;
7195;SDS011;3639;51.308;5.624;2023-07-31T03:26:17;9.17;;;4.17;;
7195;SDS011;3639;51.308;5.624;2023-07-31T03:28:43;12.60;;;4.87;;
7195;SDS011;3639;51.308;5.624;2023-07-31T03:31:09;11.60;;;5.30;;
7195;SDS011;3639;51.308;5.624;2023-07-31T03:33:34;13.30;;;4.83;;
7195;SDS011;3639;51.308;5.624;2023-07-31T03:36:00;6.97;;;3.73;;
7195;SDS011;3639;51.308;5.624;2023-07-31T03:38:27;14.93;;;5.37;;
7195;SDS011;3639;51.308;5.624;2023-07-31T03:40:52;12.47;;;5.60;;
7195;SDS011;3639;51.308;5.624;2023-07-31T03:43:18;13.53;;;4.60;;
7195;SDS011;3639;51.308;5.624;2023-07-31T03:45:43;9.40;;;4.30;;
7195;SDS011;3639;51.308;5.624;2023-07-31T03:48:09;10.07;;;4.50;;
7195;SDS011;3639;51.308;5.624;2023-07-31T03:50:35;11.80;;;5.13;;
7195;SDS011;3639;51.308;5.624;2023-07-31T03:53:00;12.93;;;4.50;;
7195;SDS011;3639;51.308;5.624;2023-07-31T03:55:26;8.73;;;4.67;;
7195;SDS011;3639;51.308;5.624;2023-07-31T03:57:51;9.77;;;4.60;;
7195;SDS011;3639;51.308;5.624;2023-07-31T04:00:17;11.73;;;4.43;;
7195;SDS011;3639;51.308;5.624;2023-07-31T04:02:43;9.73;;;4.87;;
7195;SDS011;3639;51.308;5.624;2023-07-31T04:05:08;11.43;;;4.30;;
7195;SDS011;3639;51.308;5.624;2023-07-31T04:07:34;8.93;;;4.20;;
7195;SDS011;3639;51.308;5.624;2023-07-31T04:10:00;11.17;;;4.77;;
7195;SDS011;3639;51.308;5.624;2023-07-31T04:12:25;13.97;;;4.80;;
7195;SDS011;3639;51.308;5.624;2023-07-31T04:14:51;10.53;;;4.60;;
7195;SDS011;3639;51.308;5.624;2023-07-31T04:17:17;10.77;;;4.77;;
7195;SDS011;3639;51.308;5.624;2023-07-31T04:19:43;10.93;;;4.57;;
7195;SDS011;3639;51.308;5.624;2023-07-31T04:22:08;10.93;;;4.50;;
7195;SDS011;3639;51.308;5.624;2023-07-31T04:24:34;8.27;;;4.70;;
7195;SDS011;3639;51.308;5.624;2023-07-31T04:26:59;8.87;;;4.70;;
7195;SDS011;3639;51.308;5.624;2023-07-31T04:29:25;8.93;;;4.83;;
7195;SDS011;3639;51.308;5.624;2023-07-31T04:31:51;10.10;;;4.30;;
7195;SDS011;3639;51.308;5.624;2023-07-31T04:34:16;13.13;;;5.07;;
7195;SDS011;3639;51.308;5.624;2023-07-31T04:36:42;7.80;;;4.83;;
7195;SDS011;3639;51.308;5.624;2023-07-31T04:39:07;8.50;;;4.57;;
7195;SDS011;3639;51.308;5.624;2023-07-31T04:41:33;9.50;;;4.67;;
7195;SDS011;3639;51.308;5.624;2023-07-31T04:43:59;9.63;;;4.50;;
7195;SDS011;3639;51.308;5.624;2023-07-31T04:46:24;9.33;;;4.37;;
7195;SDS011;3639;51.308;5.624;2023-07-31T04:48:50;9.33;;;4.57;;
7195;SDS011;3639;51.308;5.624;2023-07-31T04:51:15;10.37;;;4.53;;
7195;SDS011;3639;51.308;5.624;2023-07-31T04:53:41;9.57;;;4.90;;
7195;SDS011;3639;51.308;5.624;2023-07-31T04:56:07;8.73;;;4.63;;
7195;SDS011;3639;51.308;5.624;2023-07-31T04:58:32;9.50;;;4.27;;
7195;SDS011;3639;51.308;5.624;2023-07-31T05:00:58;11.67;;;4.43;;
7195;SDS011;3639;51.308;5.624;2023-07-31T05:03:23;8.43;;;4.80;;
7195;SDS011;3639;51.308;5.624;2023-07-31T05:05:49;10.00;;;4.60;;
7195;SDS011;3639;51.308;5.624;2023-07-31T05:08:15;10.93;;;5.63;;
7195;SDS011;3639;51.308;5.624;2023-07-31T05:10:42;12.10;;;5.57;;
7195;SDS011;3639;51.308;5.624;2023-07-31T05:13:08;7.20;;;4.57;;
7195;SDS011;3639;51.308;5.624;2023-07-31T05:15:34;9.57;;;5.03;;
7195;SDS011;3639;51.308;5.624;2023-07-31T05:17:59;10.67;;;5.20;;
7195;SDS011;3639;51.308;5.624;2023-07-31T05:20:25;7.97;;;5.00;;
7195;SDS011;3639;51.308;5.624;2023-07-31T05:22:51;10.37;;;5.50;;
7195;SDS011;3639;51.308;5.624;2023-07-31T05:25:17;7.83;;;5.20;;
7195;SDS011;3639;51.308;5.624;2023-07-31T05:27:42;9.13;;;4.80;;
7195;SDS011;3639;51.308;5.624;2023-07-31T05:30:08;11.43;;;5.17;;
7195;SDS011;3639;51.308;5.624;2023-07-31T05:32:34;7.77;;;4.77;;
7195;SDS011;3639;51.308;5.624;2023-07-31T05:34:59;9.37;;;5.07;;
7195;SDS011;3639;51.308;5.624;2023-07-31T05:37:25;15.33;;;5.93;;
7195;SDS011;3639;51.308;5.624;2023-07-31T05:39:51;10.20;;;5.17;;
7195;SDS011;3639;51.308;5.624;2023-07-31T05:42:17;11.27;;;5.43;;
7195;SDS011;3639;51.308;5.624;2023-07-31T05:44:42;11.30;;;5.77;;
7195;SDS011;3639;51.308;5.624;2023-07-31T05:47:08;6.77;;;4.63;;
7195;SDS011;3639;51.308;5.624;2023-07-31T05:49:34;7.73;;;4.63;;
7195;SDS011;3639;51.308;5.624;2023-07-31T05:52:00;8.23;;;4.57;;
7195;SDS011;3639;51.308;5.624;2023-07-31T05:54:26;9.53;;;5.20;;
7195;SDS011;3639;51.308;5.624;2023-07-31T05:56:51;8.37;;;5.83;;
7195;SDS011;3639;51.308;5.624;2023-07-31T05:59:17;10.57;;;5.20;;
7195;SDS011;3639;51.308;5.624;2023-07-31T06:01:42;10.90;;;5.10;;
7195;SDS011;3639;51.308;5.624;2023-07-31T06:04:08;8.90;;;5.00;;
7195;SDS011;3639;51.308;5.624;2023-07-31T06:06:34;11.13;;;5.33;;
7195;SDS011;3639;51.308;5.624;2023-07-31T06:08:59;9.83;;;5.07;;
7195;SDS011;3639;51.308;5.624;2023-07-31T06:11:25;12.37;;;7.30;;
7195;SDS011;3639;51.308;5.624;2023-07-31T06:13:51;9.30;;;4.83;;
7195;SDS011;3639;51.308;5.624;2023-07-31T06:16:17;9.33;;;4.90;;
7195;SDS011;3639;51.308;5.624;2023-07-31T06:18:42;9.17;;;4.87;;
7195;SDS011;3639;51.308;5.624;2023-07-31T06:21:09;10.67;;;4.53;;
7195;SDS011;3639;51.308;5.624;2023-07-31T06:23:35;12.03;;;5.60;;
7195;SDS011;3639;51.308;5.624;2023-07-31T06:26:00;8.27;;;4.73;;
7195;SDS011;3639;51.308;5.624;2023-07-31T06:28:29;10.00;;;4.97;;
7195;SDS011;3639;51.308;5.624;2023-07-31T06:30:56;9.00;;;5.10;;
7195;SDS011;3639;51.308;5.624;2023-07-31T06:33:22;9.00;;;4.53;;
7195;SDS011;3639;51.308;5.624;2023-07-31T06:35:48;7.23;;;4.80;;
7195;SDS011;3639;51.308;5.624;2023-07-31T06:38:13;8.37;;;4.73;;
7195;SDS011;3639;51.308;5.624;2023-07-31T06:40:39;8.20;;;4.67;;
7195;SDS011;3639;51.308;5.624;2023-07-31T06:43:05;8.43;;;4.87;;
7195;SDS011;3639;51.308;5.624;2023-07-31T06:45:34;9.50;;;5.10;;
7195;SDS011;3639;51.308;5.624;2023-07-31T06:48:00;7.60;;;4.57;;
7195;SDS011;3639;51.308;5.624;2023-07-31T06:50:27;9.67;;;4.93;;
7195;SDS011;3639;51.308;5.624;2023-07-31T06:52:58;6.43;;;4.33;;
7195;SDS011;3639;51.308;5.624;2023-07-31T06:55:24;8.40;;;4.17;;
7195;SDS011;3639;51.308;5.624;2023-07-31T06:57:51;7.40;;;4.63;;
7195;SDS011;3639;51.308;5.624;2023-07-31T07:00:19;6.03;;;3.90;;
7195;SDS011;3639;51.308;5.624;2023-07-31T07:02:45;8.73;;;4.27;;
7195;SDS011;3639;51.308;5.624;2023-07-31T07:05:14;6.10;;;4.00;;
7195;SDS011;3639;51.308;5.624;2023-07-31T07:07:40;7.53;;;4.10;;
7195;SDS011;3639;51.308;5.624;2023-07-31T07:10:06;6.10;;;3.80;;
7195;SDS011;3639;51.308;5.624;2023-07-31T07:12:33;5.93;;;3.77;;
7195;SDS011;3639;51.308;5.624;2023-07-31T07:14:59;4.53;;;3.63;;
7195;SDS011;3639;51.308;5.624;2023-07-31T07:17:25;6.90;;;4.07;;
7195;SDS011;3639;51.308;5.624;2023-07-31T07:19:52;6.17;;;3.77;;
7195;SDS011;3639;51.308;5.624;2023-07-31T07:22:18;5.70;;;3.37;;
7195;SDS011;3639;51.308;5.624;2023-07-31T07:24:44;5.03;;;3.60;;
7195;SDS011;3639;51.308;5.624;2023-07-31T07:27:09;8.63;;;4.27;;
7195;SDS011;3639;51.308;5.624;2023-07-31T07:29:35;9.00;;;4.30;;
7195;SDS011;3639;51.308;5.624;2023-07-31T07:32:01;6.07;;;3.50;;
7195;SDS011;3639;51.308;5.624;2023-07-31T07:34:27;6.33;;;3.87;;
7195;SDS011;3639;51.308;5.624;2023-07-31T07:36:53;5.40;;;3.80;;
7195;SDS011;3639;51.308;5.624;2023-07-31T07:39:19;8.40;;;4.40;;
7195;SDS011;3639;51.308;5.624;2023-07-31T07:41:45;5.27;;;3.40;;
7195;SDS011;3639;51.308;5.624;2023-07-31T07:44:11;7.87;;;4.83;;
7195;SDS011;3639;51.308;5.624;2023-07-31T07:46:37;5.63;;;3.43;;
7195;SDS011;3639;51.308;5.624;2023-07-31T07:49:03;6.70;;;4.23;;
7195;SDS011;3639;51.308;5.624;2023-07-31T07:51:32;6.00;;;3.57;;
7195;SDS011;3639;51.308;5.624;2023-07-31T07:53:58;5.10;;;3.20;;
7195;SDS011;3639;51.308;5.624;2023-07-31T07:56:25;6.77;;;3.70;;
7195;SDS011;3639;51.308;5.624;2023-07-31T07:58:51;5.83;;;3.70;;
7195;SDS011;3639;51.308;5.624;2023-07-31T08:01:17;7.33;;;4.23;;
7195;SDS011;3639;51.308;5.624;2023-07-31T08:03:43;6.97;;;4.10;;
7195;SDS011;3639;51.308;5.624;2023-07-31T08:06:08;7.00;;;3.83;;
7195;SDS011;3639;51.308;5.624;2023-07-31T08:08:37;5.77;;;4.00;;
7195;SDS011;3639;51.308;5.624;2023-07-31T08:11:03;7.43;;;4.40;;
7195;SDS011;3639;51.308;5.624;2023-07-31T08:13:29;8.07;;;4.27;;
7195;SDS011;3639;51.308;5.624;2023-07-31T08:15:55;6.27;;;4.03;;
7195;SDS011;3639;51.308;5.624;2023-07-31T08:18:20;6.80;;;4.03;;
7195;SDS011;3639;51.308;5.624;2023-07-31T08:20:46;9.60;;;4.27;;
7195;SDS011;3639;51.308;5.624;2023-07-31T08:23:12;9.67;;;5.07;;
7195;SDS011;3639;51.308;5.624;2023-07-31T08:25:37;6.87;;;4.50;;
7195;SDS011;3639;51.308;5.624;2023-07-31T08:28:04;10.60;;;4.47;;
7195;SDS011;3639;51.308;5.624;2023-07-31T08:30:30;5.17;;;4.07;;
7195;SDS011;3639;51.308;5.624;2023-07-31T08:32:56;6.23;;;3.70;;
7195;SDS011;3639;51.308;5.624;2023-07-31T08:35:21;7.57;;;4.10;;
7195;SDS011;3639;51.308;5.624;2023-07-31T08:37:47;8.67;;;4.20;;
7195;SDS011;3639;51.308;5.624;2023-07-31T08:40:13;7.63;;;4.13;;
7195;SDS011;3639;51.308;5.624;2023-07-31T08:42:48;7.60;;;4.17;;
7195;SDS011;3639;51.308;5.624;2023-07-31T08:45:18;5.03;;;3.37;;
7195;SDS011;3639;51.308;5.624;2023-07-31T08:47:45;4.30;;;3.43;;
7195;SDS011;3639;51.308;5.624;2023-07-31T08:50:13;7.57;;;4.27;;
7195;SDS011;3639;51.308;5.624;2023-07-31T08:52:40;6.13;;;3.67;;
7195;SDS011;3639;51.308;5.624;2023-07-31T08:55:06;8.00;;;5.00;;
7195;SDS011;3639;51.308;5.624;2023-07-31T08:57:33;6.90;;;4.20;;
7195;SDS011;3639;51.308;5.624;2023-07-31T09:00:01;6.50;;;3.80;;
7195;SDS011;3639;51.308;5.624;2023-07-31T09:02:30;4.70;;;3.33;;
7195;SDS011;3639;51.308;5.624;2023-07-31T09:05:03;8.77;;;3.70;;
7195;SDS011;3639;51.308;5.624;2023-07-31T09:07:32;6.33;;;4.07;;
7195;SDS011;3639;51.308;5.624;2023-07-31T09:10:01;8.10;;;4.13;;
7195;SDS011;3639;51.308;5.624;2023-07-31T09:12:27;5.97;;;3.43;;
7195;SDS011;3639;51.308;5.624;2023-07-31T09:14:53;6.20;;;3.60;;
7195;SDS011;3639;51.308;5.624;2023-07-31T09:17:29;7.07;;;3.40;;
7195;SDS011;3639;51.308;5.624;2023-07-31T09:19:56;6.20;;;3.67;;
7195;SDS011;3639;51.308;5.624;2023-07-31T09:22:32;5.90;;;3.40;;
7195;SDS011;3639;51.308;5.624;2023-07-31T09:25:04;7.33;;;3.90;;
7195;SDS011;3639;51.308;5.624;2023-07-31T09:30:26;6.00;;;3.40;;
7195;SDS011;3639;51.308;5.624;2023-07-31T09:33:00;7.23;;;3.43;;
7195;SDS011;3639;51.308;5.624;2023-07-31T09:35:28;5.20;;;3.00;;
7195;SDS011;3639;51.308;5.624;2023-07-31T09:38:00;7.13;;;3.17;;
7195;SDS011;3639;51.308;5.624;2023-07-31T09:43:01;6.03;;;2.90;;
7195;SDS011;3639;51.308;5.624;2023-07-31T09:45:28;6.30;;;3.23;;
7195;SDS011;3639;51.308;5.624;2023-07-31T09:47:55;6.40;;;3.70;;
7195;SDS011;3639;51.308;5.624;2023-07-31T09:50:22;7.33;;;3.50;;
7195;SDS011;3639;51.308;5.624;2023-07-31T09:52:49;7.90;;;3.23;;
7195;SDS011;3639;51.308;5.624;2023-07-31T09:55:15;7.57;;;3.37;;
7195;SDS011;3639;51.308;5.624;2023-07-31T09:57:42;5.10;;;3.10;;
7195;SDS011;3639;51.308;5.624;2023-07-31T10:00:10;6.13;;;3.00;;
7195;SDS011;3639;51.308;5.624;2023-07-31T10:02:37;4.73;;;2.90;;
7195;SDS011;3639;51.308;5.624;2023-07-31T10:05:05;7.17;;;3.33;;
7195;SDS011;3639;51.308;5.624;2023-07-31T10:07:33;4.80;;;2.77;;
7195;SDS011;3639;51.308;5.624;2023-07-31T10:10:09;6.13;;;3.37;;
7195;SDS011;3639;51.308;5.624;2023-07-31T10:12:36;2.90;;;2.50;;
7195;SDS011;3639;51.308;5.624;2023-07-31T10:15:03;5.67;;;3.10;;
7195;SDS011;3639;51.308;5.624;2023-07-31T10:17:30;6.77;;;2.60;;
7195;SDS011;3639;51.308;5.624;2023-07-31T10:19:57;5.10;;;2.63;;
7195;SDS011;3639;51.308;5.624;2023-07-31T10:22:26;4.10;;;2.70;;
7195;SDS011;3639;51.308;5.624;2023-07-31T10:24:52;5.03;;;2.53;;
7195;SDS011;3639;51.308;5.624;2023-07-31T10:27:19;5.77;;;2.63;;
7195;SDS011;3639;51.308;5.624;2023-07-31T10:29:45;6.67;;;3.30;;
7195;SDS011;3639;51.308;5.624;2023-07-31T10:32:13;6.27;;;3.03;;
7195;SDS011;3639;51.308;5.624;2023-07-31T10:34:40;5.63;;;2.70;;
7195;SDS011;3639;51.308;5.624;2023-07-31T10:39:55;4.33;;;2.50;;
7195;SDS011;3639;51.308;5.624;2023-07-31T10:42:32;3.77;;;2.70;;
7195;SDS011;3639;51.308;5.624;2023-07-31T10:45:06;4.80;;;2.97;;
7195;SDS011;3639;51.308;5.624;2023-07-31T10:47:38;6.00;;;2.63;;
7195;SDS011;3639;51.308;5.624;2023-07-31T10:50:15;4.47;;;2.77;;
7195;SDS011;3639;51.308;5.624;2023-07-31T10:52:49;4.63;;;2.67;;
7195;SDS011;3639;51.308;5.624;2023-07-31T11:00:43;5.70;;;2.90;;
7195;SDS011;3639;51.308;5.624;2023-07-31T11:03:10;4.60;;;2.50;;
7195;SDS011;3639;51.308;5.624;2023-07-31T11:05:49;5.67;;;2.90;;
7195;SDS011;3639;51.308;5.624;2023-07-31T11:10:45;5.73;;;2.67;;
7195;SDS011;3639;51.308;5.624;2023-07-31T11:13:11;5.80;;;3.08;;
7195;SDS011;3639;51.308;5.624;2023-07-31T11:15:37;5.13;;;2.97;;
7195;SDS011;3639;51.308;5.624;2023-07-31T11:18:03;5.37;;;2.70;;
7195;SDS011;3639;51.308;5.624;2023-07-31T11:20:30;4.83;;;2.43;;
7195;SDS011;3639;51.308;5.624;2023-07-31T11:23:03;5.27;;;2.60;;
7195;SDS011;3639;51.308;5.624;2023-07-31T11:25:32;7.03;;;2.50;;
7195;SDS011;3639;51.308;5.624;2023-07-31T11:28:04;5.17;;;2.40;;
7195;SDS011;3639;51.308;5.624;2023-07-31T11:30:31;3.93;;;2.27;;
7195;SDS011;3639;51.308;5.624;2023-07-31T11:32:57;3.63;;;2.40;;
7195;SDS011;3639;51.308;5.624;2023-07-31T11:35:23;3.43;;;2.10;;
7195;SDS011;3639;51.308;5.624;2023-07-31T11:37:49;3.90;;;2.40;;
7195;SDS011;3639;51.308;5.624;2023-07-31T11:40:14;5.00;;;2.60;;
7195;SDS011;3639;51.308;5.624;2023-07-31T11:42:40;3.60;;;2.33;;
7195;SDS011;3639;51.308;5.624;2023-07-31T11:45:07;7.20;;;2.60;;
7195;SDS011;3639;51.308;5.624;2023-07-31T11:47:34;5.83;;;2.33;;
7195;SDS011;3639;51.308;5.624;2023-07-31T11:50:01;3.70;;;2.60;;
7195;SDS011;3639;51.308;5.624;2023-07-31T11:52:32;3.87;;;2.53;;
7195;SDS011;3639;51.308;5.624;2023-07-31T11:55:00;3.23;;;2.33;;
7195;SDS011;3639;51.308;5.624;2023-07-31T11:57:26;4.27;;;2.37;;
7195;SDS011;3639;51.308;5.624;2023-07-31T11:59:53;3.87;;;2.37;;
7195;SDS011;3639;51.308;5.624;2023-07-31T12:02:19;5.97;;;3.33;;
7195;SDS011;3639;51.308;5.624;2023-07-31T12:04:46;4.17;;;2.57;;
7195;SDS011;3639;51.308;5.624;2023-07-31T12:07:12;3.77;;;2.73;;
7195;SDS011;3639;51.308;5.624;2023-07-31T12:09:38;5.53;;;2.50;;
7195;SDS011;3639;51.308;5.624;2023-07-31T12:12:19;5.47;;;2.80;;
7195;SDS011;3639;51.308;5.624;2023-07-31T12:14:48;5.23;;;2.93;;
7195;SDS011;3639;51.308;5.624;2023-07-31T12:17:14;4.80;;;3.00;;
7195;SDS011;3639;51.308;5.624;2023-07-31T12:19:39;3.60;;;2.70;;
7195;SDS011;3639;51.308;5.624;2023-07-31T12:22:15;6.77;;;3.03;;
7195;SDS011;3639;51.308;5.624;2023-07-31T12:24:42;6.03;;;3.40;;
7195;SDS011;3639;51.308;5.624;2023-07-31T12:27:12;5.57;;;3.10;;
7195;SDS011;3639;51.308;5.624;2023-07-31T12:29:39;7.47;;;3.43;;
7195;SDS011;3639;51.308;5.624;2023-07-31T12:32:23;6.47;;;3.40;;
7195;SDS011;3639;51.308;5.624;2023-07-31T12:34:54;7.17;;;3.83;;
7195;SDS011;3639;51.308;5.624;2023-07-31T12:37:24;5.87;;;3.60;;
7195;SDS011;3639;51.308;5.624;2023-07-31T12:39:49;4.93;;;3.60;;
7195;SDS011;3639;51.308;5.624;2023-07-31T12:42:17;6.97;;;3.30;;
7195;SDS011;3639;51.308;5.624;2023-07-31T12:44:42;6.37;;;3.70;;
7195;SDS011;3639;51.308;5.624;2023-07-31T12:47:08;7.87;;;3.83;;
7195;SDS011;3639;51.308;5.624;2023-07-31T12:49:34;7.30;;;3.77;;
7195;SDS011;3639;51.308;5.624;2023-07-31T12:51:59;8.80;;;3.73;;
7195;SDS011;3639;51.308;5.624;2023-07-31T12:54:25;8.10;;;3.80;;
7195;SDS011;3639;51.308;5.624;2023-07-31T12:56:50;7.83;;;4.00;;
7195;SDS011;3639;51.308;5.624;2023-07-31T12:59:16;7.43;;;3.73;;
7195;SDS011;3639;51.308;5.624;2023-07-31T13:01:41;5.30;;;3.63;;
7195;SDS011;3639;51.308;5.624;2023-07-31T13:04:07;6.17;;;3.50;;
7195;SDS011;3639;51.308;5.624;2023-07-31T13:06:33;6.63;;;3.83;;
7195;SDS011;3639;51.308;5.624;2023-07-31T13:08:59;8.47;;;4.33;;
7195;SDS011;3639;51.308;5.624;2023-07-31T13:11:24;9.50;;;4.03;;
7195;SDS011;3639;51.308;5.624;2023-07-31T13:13:50;6.53;;;3.50;;
7195;SDS011;3639;51.308;5.624;2023-07-31T13:16:16;6.93;;;3.70;;
7195;SDS011;3639;51.308;5.624;2023-07-31T13:18:41;6.33;;;3.47;;
7195;SDS011;3639;51.308;5.624;2023-07-31T13:21:07;6.13;;;3.90;;
7195;SDS011;3639;51.308;5.624;2023-07-31T13:23:32;6.60;;;4.00;;
7195;SDS011;3639;51.308;5.624;2023-07-31T13:25:58;5.67;;;3.53;;
7195;SDS011;3639;51.308;5.624;2023-07-31T13:28:24;7.60;;;4.07;;
7195;SDS011;3639;51.308;5.624;2023-07-31T13:30:49;5.77;;;3.50;;
7195;SDS011;3639;51.308;5.624;2023-07-31T13:33:15;7.80;;;3.80;;
7195;SDS011;3639;51.308;5.624;2023-07-31T13:35:40;6.43;;;3.73;;
7195;SDS011;3639;51.308;5.624;2023-07-31T13:38:06;7.97;;;4.23;;
7195;SDS011;3639;51.308;5.624;2023-07-31T13:40:32;6.70;;;4.03;;
7195;SDS011;3639;51.308;5.624;2023-07-31T13:42:57;5.30;;;3.43;;
7195;SDS011;3639;51.308;5.624;2023-07-31T13:45:23;6.93;;;3.80;;
7195;SDS011;3639;51.308;5.624;2023-07-31T13:47:49;5.67;;;3.63;;
7195;SDS011;3639;51.308;5.624;2023-07-31T13:50:16;6.17;;;3.97;;
7195;SDS011;3639;51.308;5.624;2023-07-31T13:52:44;7.83;;;3.70;;
7195;SDS011;3639;51.308;5.624;2023-07-31T13:55:09;6.90;;;4.03;;
7195;SDS011;3639;51.308;5.624;2023-07-31T13:57:35;5.67;;;3.67;;
7195;SDS011;3639;51.308;5.624;2023-07-31T14:00:00;9.70;;;4.43;;
7195;SDS011;3639;51.308;5.624;2023-07-31T14:02:27;6.70;;;3.40;;
7195;SDS011;3639;51.308;5.624;2023-07-31T14:04:52;6.43;;;3.77;;
7195;SDS011;3639;51.308;5.624;2023-07-31T14:07:18;10.40;;;4.13;;
7195;SDS011;3639;51.308;5.624;2023-07-31T14:09:44;8.00;;;4.70;;
7195;SDS011;3639;51.308;5.624;2023-07-31T14:12:09;7.63;;;4.13;;
7195;SDS011;3639;51.308;5.624;2023-07-31T14:14:35;9.17;;;4.83;;
7195;SDS011;3639;51.308;5.624;2023-07-31T14:17:00;7.33;;;4.43;;
7195;SDS011;3639;51.308;5.624;2023-07-31T14:19:26;7.77;;;4.67;;
7195;SDS011;3639;51.308;5.624;2023-07-31T14:21:52;8.13;;;4.80;;
7195;SDS011;3639;51.308;5.624;2023-07-31T14:24:17;8.70;;;4.17;;
7195;SDS011;3639;51.308;5.624;2023-07-31T14:26:43;9.23;;;4.93;;
7195;SDS011;3639;51.308;5.624;2023-07-31T14:29:08;9.30;;;5.43;;
7195;SDS011;3639;51.308;5.624;2023-07-31T14:31:34;11.33;;;5.00;;
7195;SDS011;3639;51.308;5.624;2023-07-31T14:34:00;9.90;;;5.30;;
7195;SDS011;3639;51.308;5.624;2023-07-31T14:36:26;14.53;;;4.77;;
7195;SDS011;3639;51.308;5.624;2023-07-31T14:38:51;9.47;;;4.80;;
7195;SDS011;3639;51.308;5.624;2023-07-31T14:41:17;7.60;;;4.00;;
7195;SDS011;3639;51.308;5.624;2023-07-31T14:43:42;11.60;;;4.87;;
7195;SDS011;3639;51.308;5.624;2023-07-31T14:46:08;5.63;;;3.90;;
7195;SDS011;3639;51.308;5.624;2023-07-31T14:48:34;6.43;;;3.60;;
7195;SDS011;3639;51.308;5.624;2023-07-31T14:50:59;9.57;;;4.40;;
7195;SDS011;3639;51.308;5.624;2023-07-31T14:53:25;7.93;;;4.60;;
7195;SDS011;3639;51.308;5.624;2023-07-31T14:55:51;6.67;;;4.10;;
7195;SDS011;3639;51.308;5.624;2023-07-31T14:58:16;8.60;;;5.03;;
7195;SDS011;3639;51.308;5.624;2023-07-31T15:00:42;7.43;;;4.73;;
7195;SDS011;3639;51.308;5.624;2023-07-31T15:03:08;10.87;;;4.83;;
7195;SDS011;3639;51.308;5.624;2023-07-31T15:05:34;10.00;;;5.47;;
7195;SDS011;3639;51.308;5.624;2023-07-31T15:07:59;8.10;;;5.00;;
7195;SDS011;3639;51.308;5.624;2023-07-31T15:10:25;8.47;;;5.10;;
7195;SDS011;3639;51.308;5.624;2023-07-31T15:12:51;8.90;;;4.33;;
7195;SDS011;3639;51.308;5.624;2023-07-31T15:15:17;7.17;;;4.67;;
7195;SDS011;3639;51.308;5.624;2023-07-31T15:17:42;7.83;;;4.50;;
7195;SDS011;3639;51.308;5.624;2023-07-31T15:20:09;8.07;;;4.27;;
7195;SDS011;3639;51.308;5.624;2023-07-31T15:22:35;5.20;;;3.40;;
7195;SDS011;3639;51.308;5.624;2023-07-31T15:25:00;7.17;;;3.60;;